createdAt,value
2022-12-20T00:01:51.521Z,101537.22
2022-12-20T00:04:19.372Z,101541.69
2022-12-20T00:06:47.359Z,101544.13
2022-12-20T00:09:15.313Z,101544.59
2022-12-20T00:11:43.543Z,101545.16
2022-12-20T00:14:12.753Z,101542.34
2022-12-20T00:16:40.512Z,101526.16
2022-12-20T00:19:08.981Z,101526.63
2022-12-20T00:21:38.147Z,101525.19
2022-12-20T00:24:07.452Z,101520.06
2022-12-20T00:26:37.966Z,101515.34
2022-12-20T00:29:06.716Z,101518.72
2022-12-20T00:31:38.777Z,101521.84
2022-12-20T00:34:06.641Z,101515.78
2022-12-20T00:36:34.658Z,101493.91
2022-12-20T00:39:03.105Z,101492.34
2022-12-20T00:41:33.409Z,101478.28
2022-12-20T00:44:01.759Z,101487.28
2022-12-20T00:46:29.930Z,101496.34
2022-12-20T00:48:59.326Z,101498.25
2022-12-20T00:51:28.908Z,101497.03
2022-12-20T00:53:57.016Z,101493.00
2022-12-20T00:56:26.027Z,101498.50
2022-12-20T00:58:54.719Z,101500.41
2022-12-20T01:01:24.911Z,101494.03
2022-12-20T01:03:54.496Z,101486.06
2022-12-20T01:06:25.463Z,101483.41
2022-12-20T01:08:53.869Z,101492.56
2022-12-20T01:11:24.133Z,101494.38
2022-12-20T01:13:54.132Z,101484.19
2022-12-20T01:16:25.039Z,101474.47
2022-12-20T01:18:54.342Z,101486.53
2022-12-20T01:21:26.154Z,101495.03
2022-12-20T01:23:54.448Z,101491.00
2022-12-20T01:26:24.558Z,101487.88
2022-12-20T01:28:55.276Z,101485.66
2022-12-20T01:31:23.714Z,101486.06
2022-12-20T01:33:53.376Z,101476.38
2022-12-20T01:36:25.261Z,101477.59
2022-12-20T01:38:57.697Z,101464.75
2022-12-20T01:41:25.736Z,101465.09
2022-12-20T01:43:56.456Z,101470.66
2022-12-20T01:46:26.180Z,101471.78
2022-12-20T01:48:59.235Z,101468.00
2022-12-20T01:51:31.806Z,101461.28
2022-12-20T01:54:05.722Z,101453.91
2022-12-20T01:56:33.670Z,101454.81
2022-12-20T01:59:02.443Z,101444.06
2022-12-20T02:01:30.351Z,101449.75
2022-12-20T02:03:58.602Z,101455.25
2022-12-20T02:06:29.867Z,101456.81
2022-12-20T02:09:02.119Z,101444.28
2022-12-20T02:11:50.255Z,101445.41
2022-12-20T02:14:37.745Z,101435.13
2022-12-20T02:17:14.055Z,101437.25
2022-12-20T02:20:15.907Z,101450.34
2022-12-20T02:23:08.006Z,101452.66
2022-12-20T02:25:47.777Z,101454.00
2022-12-20T02:28:35.003Z,101447.78
2022-12-20T02:31:09.306Z,101445.63
2022-12-20T02:33:37.224Z,101438.72
2022-12-20T02:36:05.817Z,101440.94
2022-12-20T02:38:35.217Z,101430.66
2022-12-20T02:41:07.438Z,101438.47
2022-12-20T02:43:58.235Z,101429.75
2022-12-20T02:46:28.481Z,101414.44
2022-12-20T02:49:01.870Z,101416.91
2022-12-20T02:51:31.544Z,101424.63
2022-12-20T02:54:00.358Z,101408.94
2022-12-20T02:56:33.445Z,101417.91
2022-12-20T02:59:06.334Z,101410.72
2022-12-20T03:01:39.395Z,101403.34
2022-12-20T03:04:09.206Z,101398.75
2022-12-20T03:06:36.905Z,101391.50
2022-12-20T03:09:05.020Z,101382.56
2022-12-20T03:11:33.827Z,101384.13
2022-12-20T03:14:01.726Z,101377.81
2022-12-20T03:16:29.760Z,101369.53
2022-12-20T03:18:59.008Z,101375.16
2022-12-20T03:21:26.947Z,101380.84
2022-12-20T03:23:54.859Z,101385.88
2022-12-20T03:26:22.690Z,101380.63
2022-12-20T03:28:50.704Z,101379.63
2022-12-20T03:31:18.679Z,101361.25
2022-12-20T03:34:03.790Z,101365.28
2022-12-20T03:36:33.219Z,101367.97
2022-12-20T03:39:01.198Z,101373.31
2022-12-20T03:41:29.369Z,101382.72
2022-12-20T03:43:57.434Z,101380.47
2022-12-20T03:46:25.202Z,101381.47
2022-12-20T03:48:53.784Z,101392.78
2022-12-20T03:51:21.690Z,101390.06
2022-12-20T03:53:51.092Z,101400.06
2022-12-20T03:56:19.344Z,101398.91
2022-12-20T03:58:47.237Z,101394.09
2022-12-20T04:01:20.814Z,101367.47
2022-12-20T04:03:48.684Z,101356.97
2022-12-20T04:06:17.019Z,101367.09
2022-12-20T04:08:45.177Z,101366.84
2022-12-20T04:11:17.986Z,101371.50
2022-12-20T04:13:46.964Z,101365.47
2022-12-20T04:16:16.507Z,101369.41
2022-12-20T04:18:44.494Z,101371.63
2022-12-20T04:21:13.467Z,101376.53
2022-12-20T04:23:43.543Z,101375.34
2022-12-20T04:26:13.285Z,101359.25
2022-12-20T04:28:42.500Z,101344.63
2022-12-20T04:31:10.994Z,101345.66
2022-12-20T04:33:39.269Z,101345.19
2022-12-20T04:36:07.943Z,101349.69
2022-12-20T04:38:36.352Z,101342.16
2022-12-20T04:41:04.262Z,101342.34
2022-12-20T04:43:32.252Z,101358.78
2022-12-20T04:46:01.604Z,101351.31
2022-12-20T04:51:17.588Z,101341.06
2022-12-20T04:53:48.023Z,101347.56
2022-12-20T04:56:21.163Z,101347.28
2022-12-20T04:58:51.035Z,101345.50
2022-12-20T05:01:20.954Z,101349.13
2022-12-20T05:03:49.581Z,101350.47
2022-12-20T05:06:18.319Z,101340.88
2022-12-20T05:08:46.232Z,101328.09
2022-12-20T05:11:14.348Z,101334.16
2022-12-20T05:13:42.453Z,101324.13
2022-12-20T05:16:10.457Z,101328.66
2022-12-20T05:18:46.448Z,101336.81
2022-12-20T05:21:42.310Z,101330.81
2022-12-20T05:24:28.200Z,101339.72
2022-12-20T05:26:56.038Z,101334.22
2022-12-20T05:29:23.890Z,101323.19
2022-12-20T05:31:51.959Z,101329.53
2022-12-20T05:34:21.314Z,101321.69
2022-12-20T05:36:49.257Z,101312.97
2022-12-20T05:39:17.337Z,101317.06
2022-12-20T05:41:45.075Z,101310.56
2022-12-20T05:44:12.934Z,101309.88
2022-12-20T05:46:40.750Z,101315.72
2022-12-20T05:49:08.630Z,101305.63
2022-12-20T05:51:37.808Z,101301.13
2022-12-20T05:54:05.728Z,101296.53
2022-12-20T05:56:33.587Z,101293.75
2022-12-20T05:59:01.496Z,101302.44
2022-12-20T06:01:29.354Z,101306.00
2022-12-20T06:03:57.866Z,101295.59
2022-12-20T06:06:25.775Z,101290.06
2022-12-20T06:08:56.119Z,101302.78
2022-12-20T06:11:29.657Z,101291.59
2022-12-20T06:13:58.361Z,101289.69
2022-12-20T06:16:26.123Z,101299.00
2022-12-20T06:18:54.041Z,101310.41
2022-12-20T06:21:21.936Z,101314.03
2022-12-20T06:23:52.757Z,101319.41
2022-12-20T06:26:23.145Z,101321.75
2022-12-20T06:28:52.664Z,101320.88
2022-12-20T06:31:21.453Z,101324.88
2022-12-20T06:33:49.324Z,101319.25
2022-12-20T06:36:17.201Z,101316.34
2022-12-20T06:38:45.216Z,101313.09
2022-12-20T06:41:13.119Z,101312.09
2022-12-20T06:43:42.207Z,101314.97
2022-12-20T06:46:10.184Z,101319.63
2022-12-20T06:48:38.141Z,101321.22
2022-12-20T06:51:06.197Z,101317.41
2022-12-20T06:53:34.252Z,101318.59
2022-12-20T06:56:02.172Z,101321.53
2022-12-20T06:58:29.943Z,101329.25
2022-12-20T07:00:59.601Z,101329.56
2022-12-20T07:03:27.626Z,101331.72
2022-12-20T07:05:56.546Z,101327.09
2022-12-20T07:08:25.358Z,101318.59
2022-12-20T07:10:54.503Z,101316.91
2022-12-20T07:13:22.705Z,101324.22
2022-12-20T07:15:50.677Z,101320.97
2022-12-20T07:18:23.121Z,101324.41
2022-12-20T07:20:50.932Z,101319.69
2022-12-20T07:23:19.366Z,101326.03
2022-12-20T07:25:54.746Z,101325.81
2022-12-20T07:28:22.668Z,101329.78
2022-12-20T07:30:50.810Z,101333.38
2022-12-20T07:33:20.526Z,101330.91
2022-12-20T07:35:53.970Z,101333.38
2022-12-20T07:38:22.515Z,101338.63
2022-12-20T07:40:50.596Z,101345.66
2022-12-20T07:43:18.633Z,101338.72
2022-12-20T07:45:47.630Z,101346.03
2022-12-20T07:48:19.795Z,101346.03
2022-12-20T07:50:53.440Z,101347.63
2022-12-20T07:53:22.718Z,101345.16
2022-12-20T07:55:50.983Z,101350.41
2022-12-20T07:58:21.175Z,101350.19
2022-12-20T08:00:49.140Z,101357.94
2022-12-20T08:03:22.087Z,101355.97
2022-12-20T08:05:54.844Z,101351.03
2022-12-20T08:08:24.031Z,101350.03
2022-12-20T08:10:52.826Z,101346.56
2022-12-20T08:13:23.897Z,101356.94
2022-12-20T08:15:51.991Z,101356.19
2022-12-20T08:18:19.936Z,101360.34
2022-12-20T08:20:47.926Z,101355.78
2022-12-20T08:23:17.717Z,101360.94
2022-12-20T08:25:45.801Z,101355.59
2022-12-20T08:28:13.872Z,101353.09
2022-12-20T08:30:41.877Z,101352.63
2022-12-20T08:33:09.737Z,101344.09
2022-12-20T08:35:37.893Z,101350.81
2022-12-20T08:38:05.745Z,101349.06
2022-12-20T08:40:35.365Z,101336.47
2022-12-20T08:43:08.348Z,101332.19
2022-12-20T08:45:38.214Z,101328.63
2022-12-20T08:48:06.604Z,101336.38
2022-12-20T08:50:34.862Z,101342.28
2022-12-20T08:53:03.038Z,101345.69
2022-12-20T08:55:31.069Z,101345.56
2022-12-20T08:58:00.378Z,101352.19
2022-12-20T09:00:28.683Z,101357.34
2022-12-20T09:02:59.423Z,101348.97
2022-12-20T09:05:27.450Z,101351.44
2022-12-20T09:07:55.574Z,101347.53
2022-12-20T09:10:23.615Z,101351.78
2022-12-20T09:12:51.547Z,101349.13
2022-12-20T09:15:20.769Z,101341.19
2022-12-20T09:17:48.677Z,101342.28
2022-12-20T09:20:16.778Z,101336.50
2022-12-20T09:22:44.807Z,101337.72
2022-12-20T09:25:12.795Z,101338.63
2022-12-20T09:27:40.705Z,101341.66
2022-12-20T09:30:09.972Z,101340.19
2022-12-20T09:32:39.422Z,101335.09
2022-12-20T09:35:08.130Z,101342.97
2022-12-20T09:37:36.074Z,101340.19
2022-12-20T09:40:04.435Z,101331.69
2022-12-20T09:42:33.072Z,101326.16
2022-12-20T09:45:07.453Z,101316.38
2022-12-20T09:47:37.484Z,101320.66
2022-12-20T09:50:08.773Z,101322.53
2022-12-20T09:52:52.821Z,101319.59
2022-12-20T09:55:28.343Z,101314.97
2022-12-20T09:58:17.242Z,101315.59
2022-12-20T10:00:53.466Z,101322.88
2022-12-20T10:03:24.887Z,101321.72
2022-12-20T10:05:56.404Z,101318.09
2022-12-20T10:08:42.830Z,101315.34
2022-12-20T10:11:23.364Z,101313.34
2022-12-20T10:14:04.270Z,101314.03
2022-12-20T10:16:43.662Z,101309.22
2022-12-20T10:19:27.419Z,101320.09
2022-12-20T10:22:06.319Z,101314.31
2022-12-20T10:24:35.898Z,101317.03
2022-12-20T10:27:14.300Z,101305.81
2022-12-20T10:29:42.905Z,101304.47
2022-12-20T10:32:14.668Z,101298.69
2022-12-20T10:34:48.856Z,101288.16
2022-12-20T10:37:18.360Z,101281.38
2022-12-20T10:39:50.105Z,101273.28
2022-12-20T10:42:38.139Z,101261.78
2022-12-20T10:45:31.244Z,101255.34
2022-12-20T10:48:06.275Z,101251.06
2022-12-20T10:50:35.108Z,101251.50
2022-12-20T10:53:25.603Z,101229.88
2022-12-20T10:55:54.664Z,101232.47
2022-12-20T10:58:33.411Z,101230.88
2022-12-20T11:01:15.339Z,101218.28
2022-12-20T11:03:59.287Z,101217.66
2022-12-20T11:06:31.102Z,101218.56
2022-12-20T11:09:25.160Z,101213.53
2022-12-20T11:12:00.342Z,101193.47
2022-12-20T11:14:34.602Z,101193.56
2022-12-20T11:17:20.986Z,101184.97
2022-12-20T11:20:10.253Z,101179.75
2022-12-20T11:22:49.721Z,101173.59
2022-12-20T11:25:36.144Z,101182.00
2022-12-20T11:28:21.349Z,101175.53
2022-12-20T11:31:00.008Z,101167.28
2022-12-20T11:33:51.665Z,101167.41
2022-12-20T11:36:30.732Z,101150.41
2022-12-20T11:39:12.666Z,101150.28
2022-12-20T11:41:51.562Z,101152.50
2022-12-20T11:44:28.965Z,101152.59
2022-12-20T11:47:12.345Z,101145.88
2022-12-20T11:50:05.037Z,101139.75
2022-12-20T11:52:37.423Z,101139.06
2022-12-20T11:55:17.889Z,101138.63
2022-12-20T12:00:53.878Z,101134.56
2022-12-20T12:03:29.833Z,101139.41
2022-12-20T12:06:02.998Z,101143.94
2022-12-20T12:08:38.045Z,101126.78
2022-12-20T12:11:55.779Z,101125.00
2022-12-20T12:14:07.132Z,101131.88
2022-12-20T12:16:38.774Z,101131.06
2022-12-20T12:19:12.157Z,101119.81
2022-12-20T12:21:44.777Z,101119.81
2022-12-20T12:24:21.535Z,101123.53
2022-12-20T12:26:49.524Z,101105.84
2022-12-20T12:29:19.898Z,101104.97
2022-12-20T12:31:53.915Z,101103.19
2022-12-20T12:34:36.467Z,101092.59
2022-12-20T12:37:37.880Z,101096.75
2022-12-20T12:40:25.068Z,101100.97
2022-12-20T12:43:32.559Z,101090.28
2022-12-20T12:46:04.823Z,101083.19
2022-12-20T12:48:39.722Z,101085.63
2022-12-20T12:51:08.352Z,101085.72
2022-12-20T12:53:43.294Z,101071.53
2022-12-20T12:56:45.832Z,101069.97
2022-12-20T12:59:51.487Z,101058.66
2022-12-20T13:02:53.016Z,101059.63
2022-12-20T13:05:37.134Z,101050.38
2022-12-20T13:08:06.085Z,101056.56
2022-12-20T13:11:03.787Z,101052.88
2022-12-20T13:13:31.853Z,101057.81
2022-12-20T13:17:09.401Z,101052.97
2022-12-20T13:19:38.455Z,101054.72
2022-12-20T13:22:22.053Z,101055.25
2022-12-20T13:24:58.394Z,101063.50
2022-12-20T13:27:29.857Z,101062.25
2022-12-20T13:30:30.534Z,101051.72
2022-12-20T13:33:24.845Z,101058.50
2022-12-20T13:36:16.647Z,101054.97
2022-12-20T13:38:53.982Z,101060.31
2022-12-20T13:41:35.924Z,101062.25
2022-12-20T13:44:32.742Z,101071.84
2022-12-20T13:47:07.726Z,101064.41
2022-12-20T13:49:40.217Z,101061.09
2022-12-20T13:52:18.814Z,101061.03
2022-12-20T13:54:49.087Z,101057.41
2022-12-20T13:57:18.949Z,101052.09
2022-12-20T13:59:48.918Z,101058.78
2022-12-20T14:02:22.588Z,101051.66
2022-12-20T14:04:59.292Z,101057.75
2022-12-20T14:07:30.988Z,101052.13
2022-12-20T14:10:02.115Z,101054.50
2022-12-20T14:12:36.414Z,101050.50
2022-12-20T14:15:25.981Z,101052.25
2022-12-20T14:17:54.612Z,101047.59
2022-12-20T14:20:25.999Z,101032.56
2022-12-20T14:23:05.544Z,101042.75
2022-12-20T14:25:39.014Z,101029.34
2022-12-20T14:28:13.658Z,101020.75
2022-12-20T14:30:44.891Z,101027.41
2022-12-20T14:33:26.004Z,101033.69
2022-12-20T14:35:53.975Z,101035.06
2022-12-20T14:38:26.151Z,101031.69
2022-12-20T14:40:54.546Z,101027.41
2022-12-20T14:43:29.012Z,101022.00
2022-12-20T14:46:19.200Z,101018.19
2022-12-20T14:48:47.975Z,101021.03
2022-12-20T14:51:22.222Z,101021.66
2022-12-20T14:53:53.370Z,101021.13
2022-12-20T14:56:31.516Z,101032.41
2022-12-20T14:59:07.871Z,101019.66
2022-12-20T15:01:40.096Z,101009.72
2022-12-20T15:04:32.753Z,101002.56
2022-12-20T15:07:01.149Z,101019.97
2022-12-20T15:09:30.749Z,101017.25
2022-12-20T15:11:59.150Z,101018.13
2022-12-20T15:14:36.487Z,101009.72
2022-12-20T15:17:10.169Z,100999.31
2022-12-20T15:19:42.476Z,101003.19
2022-12-20T15:22:16.309Z,100998.03
2022-12-20T15:24:46.081Z,101002.38
2022-12-20T15:27:14.716Z,100997.16
2022-12-20T15:29:43.358Z,100995.84
2022-12-20T15:32:22.433Z,100998.19
2022-12-20T15:34:50.537Z,100992.22
2022-12-20T15:37:19.202Z,100984.53
2022-12-20T15:39:48.757Z,100980.69
2022-12-20T15:42:19.694Z,100977.44
2022-12-20T15:44:48.302Z,100970.03
2022-12-20T15:47:17.623Z,100970.16
2022-12-20T15:49:50.033Z,100977.53
2022-12-20T15:52:21.879Z,100971.22
2022-12-20T15:54:51.620Z,100978.34
2022-12-20T15:57:20.971Z,100976.63
2022-12-20T16:00:00.588Z,100978.59
2022-12-20T16:02:32.623Z,100963.97
2022-12-20T16:05:03.398Z,100960.28
2022-12-20T16:07:31.529Z,100956.88
2022-12-20T16:10:00.953Z,100955.91
2022-12-20T16:12:35.926Z,100959.69
2022-12-20T16:15:05.338Z,100960.09
2022-12-20T16:17:34.082Z,100954.69
2022-12-20T16:20:01.927Z,100957.00
2022-12-20T16:22:29.888Z,100947.91
2022-12-20T16:24:57.818Z,100950.34
2022-12-20T16:27:27.416Z,100951.38
2022-12-20T16:29:55.285Z,100955.41
2022-12-20T16:32:23.541Z,100959.69
2022-12-20T16:34:52.413Z,100956.22
2022-12-20T16:37:21.029Z,100947.50
2022-12-20T16:39:49.071Z,100937.91
2022-12-20T16:42:22.829Z,100933.63
2022-12-20T16:44:54.324Z,100935.72
2022-12-20T16:47:22.801Z,100940.25
2022-12-20T16:49:53.282Z,100943.84
2022-12-20T16:52:23.570Z,100938.78
2022-12-20T16:54:52.232Z,100938.13
2022-12-20T16:57:21.548Z,100925.06
2022-12-20T16:59:49.906Z,100936.75
2022-12-20T17:02:26.773Z,100944.25
2022-12-20T17:04:54.795Z,100936.56
2022-12-20T17:07:22.830Z,100939.72
2022-12-20T17:09:50.911Z,100938.13
2022-12-20T17:12:20.980Z,100934.97
2022-12-20T17:14:52.152Z,100926.00
2022-12-20T17:17:22.916Z,100914.97
2022-12-20T17:19:50.841Z,100930.44
2022-12-20T17:22:25.626Z,100925.22
2022-12-20T17:24:53.851Z,100918.59
2022-12-20T17:27:21.885Z,100910.06
2022-12-20T17:29:50.755Z,100915.06
2022-12-20T17:32:23.440Z,100926.81
2022-12-20T17:34:51.597Z,100935.50
2022-12-20T17:37:21.090Z,100935.31
2022-12-20T17:39:50.467Z,100936.44
2022-12-20T17:42:18.927Z,100936.28
2022-12-20T17:44:47.271Z,100931.63
2022-12-20T17:47:16.910Z,100945.34
2022-12-20T17:49:46.389Z,100943.91
2022-12-20T17:52:15.966Z,100944.78
2022-12-20T17:54:43.963Z,100932.47
2022-12-20T17:57:16.028Z,100932.28
2022-12-20T17:59:44.342Z,100916.66
2022-12-20T18:02:23.677Z,100925.22
2022-12-20T18:04:54.496Z,100923.28
2022-12-20T18:07:22.601Z,100914.56
2022-12-20T18:09:51.186Z,100924.72
2022-12-20T18:12:19.443Z,100926.97
2022-12-20T18:14:50.617Z,100932.13
2022-12-20T18:17:18.801Z,100921.66
2022-12-20T18:19:46.776Z,100916.31
2022-12-20T18:22:16.456Z,100921.31
2022-12-20T18:24:44.927Z,100915.38
2022-12-20T18:27:13.666Z,100918.47
2022-12-20T18:29:41.805Z,100915.88
2022-12-20T18:32:09.991Z,100917.63
2022-12-20T18:34:38.344Z,100920.06
2022-12-20T18:37:06.643Z,100921.19
2022-12-20T18:39:36.849Z,100913.44
2022-12-20T18:42:05.465Z,100916.81
2022-12-20T18:44:37.663Z,100915.06
2022-12-20T18:47:06.017Z,100913.28
2022-12-20T18:49:34.470Z,100919.41
2022-12-20T18:52:02.485Z,100913.59
2022-12-20T18:54:30.866Z,100913.69
2022-12-20T18:57:00.318Z,100917.25
2022-12-20T18:59:28.811Z,100912.97
2022-12-20T19:01:56.929Z,100906.44
2022-12-20T19:04:25.419Z,100899.72
2022-12-20T19:06:53.711Z,100889.16
2022-12-20T19:09:22.450Z,100893.84
2022-12-20T19:11:56.325Z,100894.31
2022-12-20T19:14:26.418Z,100898.78
2022-12-20T19:16:57.493Z,100904.44
2022-12-20T19:19:26.437Z,100911.19
2022-12-20T19:21:59.089Z,100906.19
2022-12-20T19:24:29.491Z,100906.91
2022-12-20T19:26:57.604Z,100904.44
2022-12-20T19:29:28.647Z,100907.66
2022-12-20T19:31:56.591Z,100918.84
2022-12-20T19:34:24.605Z,100917.97
2022-12-20T19:36:53.361Z,100904.09
2022-12-20T19:39:23.665Z,100904.59
2022-12-20T19:42:22.205Z,100904.91
2022-12-20T19:44:42.285Z,100905.56
2022-12-20T19:47:10.292Z,100915.22
2022-12-20T19:49:38.472Z,100914.59
2022-12-20T19:52:07.492Z,100910.53
2022-12-20T19:54:36.512Z,100909.28
2022-12-20T19:57:04.511Z,100910.53
2022-12-20T19:59:39.475Z,100910.72
2022-12-20T20:02:11.976Z,100898.75
2022-12-20T20:04:43.749Z,100900.22
2022-12-20T20:07:12.367Z,100883.47
2022-12-20T20:09:42.024Z,100885.06
2022-12-20T20:12:10.057Z,100882.59
2022-12-20T20:14:37.928Z,100881.38
2022-12-20T20:17:05.805Z,100885.22
2022-12-20T20:19:35.534Z,100882.34
2022-12-20T20:22:04.077Z,100884.09
2022-12-20T20:24:32.795Z,100874.91
2022-12-20T20:27:01.110Z,100882.97
2022-12-20T20:29:29.362Z,100885.31
2022-12-20T20:31:57.726Z,100889.59
2022-12-20T20:34:25.778Z,100890.47
2022-12-20T20:36:55.832Z,100884.44
2022-12-20T20:39:23.857Z,100885.31
2022-12-20T20:41:51.804Z,100881.13
2022-12-20T20:44:19.879Z,100882.78
2022-12-20T20:46:47.833Z,100875.53
2022-12-20T20:49:15.868Z,100874.03
2022-12-20T20:51:45.165Z,100868.53
2022-12-20T20:54:24.109Z,100879.09
2022-12-20T20:56:52.307Z,100879.53
2022-12-20T20:59:21.712Z,100873.94
2022-12-20T21:01:50.266Z,100873.38
2022-12-20T21:04:18.665Z,100872.00
2022-12-20T21:06:47.351Z,100865.22
2022-12-20T21:09:15.528Z,100870.13
2022-12-20T21:11:45.469Z,100856.19
2022-12-20T21:14:14.144Z,100862.47
2022-12-20T21:16:42.373Z,100858.69
2022-12-20T21:19:10.923Z,100858.44
2022-12-20T21:21:38.824Z,100865.19
2022-12-20T21:24:07.230Z,100864.41
2022-12-20T21:26:35.085Z,100868.59
2022-12-20T21:29:04.707Z,100863.53
2022-12-20T21:31:32.781Z,100874.53
2022-12-20T21:34:01.467Z,100868.28
2022-12-20T21:36:29.441Z,100863.13
2022-12-20T21:38:59.945Z,100855.31
2022-12-20T21:41:30.689Z,100851.53
2022-12-20T21:44:00.869Z,100851.03
2022-12-20T21:46:31.847Z,100849.72
2022-12-20T21:49:00.738Z,100856.03
2022-12-20T21:51:30.755Z,100861.50
2022-12-20T21:54:00.082Z,100853.22
2022-12-20T21:56:29.908Z,100847.47
2022-12-20T21:58:58.114Z,100851.03
2022-12-20T22:01:28.313Z,100847.34
2022-12-20T22:03:59.482Z,100843.59
2022-12-20T22:06:28.465Z,100842.31
2022-12-20T22:08:58.936Z,100831.53
2022-12-20T22:11:31.408Z,100834.72
2022-12-20T22:13:59.412Z,100850.06
2022-12-20T22:16:31.005Z,100843.69
2022-12-20T22:19:00.984Z,100848.94
2022-12-20T22:21:30.431Z,100852.31
2022-12-20T22:24:02.391Z,100838.78
2022-12-20T22:26:33.266Z,100838.94
2022-12-20T22:29:04.217Z,100834.97
2022-12-20T22:31:32.704Z,100821.53
2022-12-20T22:34:03.098Z,100830.25
2022-12-20T22:36:31.358Z,100832.88
2022-12-20T22:39:01.498Z,100818.13
2022-12-20T22:41:32.346Z,100822.31
2022-12-20T22:44:00.897Z,100823.94
2022-12-20T22:46:30.532Z,100830.06
2022-12-20T22:48:59.325Z,100823.16
2022-12-20T22:51:31.136Z,100819.94
2022-12-20T22:53:59.764Z,100814.78
2022-12-20T22:56:28.434Z,100819.75
2022-12-20T22:58:56.496Z,100818.13
2022-12-20T23:01:24.929Z,100824.19
2022-12-20T23:03:53.280Z,100813.47
2022-12-20T23:06:22.888Z,100811.94
2022-12-20T23:08:52.137Z,100818.78
2022-12-20T23:11:39.639Z,100813.81
2022-12-20T23:14:28.163Z,100827.81
2022-12-20T23:16:56.072Z,100809.63
2022-12-20T23:19:24.131Z,100814.03
2022-12-20T23:22:14.679Z,100816.53
2022-12-20T23:24:43.865Z,100826.34
2022-12-20T23:27:11.845Z,100819.75
2022-12-20T23:29:40.725Z,100820.06
2022-12-20T23:32:08.973Z,100826.03
2022-12-20T23:34:36.894Z,100824.25
2022-12-20T23:37:04.753Z,100826.28
2022-12-20T23:39:32.456Z,100824.09
2022-12-20T23:42:02.041Z,100819.59
2022-12-20T23:44:31.203Z,100815.56
2022-12-20T23:46:59.097Z,100811.69
2022-12-20T23:49:27.139Z,100806.16
2022-12-20T23:51:55.101Z,100800.34
2022-12-20T23:54:23.204Z,100802.09
2022-12-20T23:56:51.509Z,100794.13
2022-12-20T23:59:20.777Z,100788.09
